| time (UTC) | temp F | wind direction | speed MPH | gust MPH | rain 1hr in | rain 24hr in | rain mn in | humidity % | barometer mb |
| 20260901222403 | 65 | 194 | 6.0 | 16.0 | 0.00 | 0.00 | 0.00 | 53 | 1013.0 |
| 20260901221804 | 65 | 200 | 5.0 | 12.0 | 0.00 | 0.00 | 0.00 | 50 | 1013.0 |
| 20260901221203 | 65 | 234 | 6.0 | 17.0 | 0.00 | 0.00 | 0.00 | 53 | 1013.0 |
| 20260901220604 | 65 | 219 | 8.0 | 18.0 | 0.00 | 0.00 | 0.00 | 53 | 1013.2 |
| 20260901220004 | 65 | 212 | 7.0 | 18.0 | 0.00 | 0.00 | 0.00 | 51 | 1013.3 |
| 20260901215618 | 65 | 193 | 7.0 | 15.0 | 0.00 | 0.00 | 0.00 | 53 | 1013.3 |
| 20260901214803 | 65 | 186 | 5.0 | 14.0 | 0.00 | 0.00 | 0.00 | 52 | 1013.2 |
| 20260901214203 | 65 | 188 | 5.0 | 14.0 | 0.00 | 0.00 | 0.00 | 54 | 1013.3 |
| 20260901213819 | 64 | 175 | 5.0 | 15.0 | 0.00 | 0.00 | 0.00 | 55 | 1013.3 |
| 20260901213218 | 64 | 169 | 5.0 | 17.0 | 0.00 | 0.00 | 0.00 | 54 | 1013.3 |
| 20260901212403 | 64 | 200 | 3.0 | 10.0 | 0.00 | 0.00 | 0.00 | 58 | 1013.5 |
| 20260901211803 | 64 | 198 | 5.0 | 15.0 | 0.00 | 0.00 | 0.00 | 59 | 1013.5 |
| 20260901211203 | 64 | 196 | 5.0 | 15.0 | 0.00 | 0.00 | 0.00 | 58 | 1013.5 |
| 20260901210603 | 63 | 198 | 4.0 | 14.0 | 0.00 | 0.00 | 0.00 | 60 | 1013.8 |
| 20260901210003 | 63 | 225 | 3.0 | 13.0 | 0.00 | 0.00 | 0.00 | 62 | 1013.9 |
| 20260901205403 | 62 | 231 | 3.0 | 13.0 | 0.00 | 0.00 | 0.00 | 61 | 1013.9 |
| 20260901205017 | 63 | 220 | 5.0 | 15.0 | 0.00 | 0.00 | 0.00 | 59 | 1014.0 |
| 20260901204203 | 63 | 210 | 4.0 | 15.0 | 0.00 | 0.00 | 0.00 | 59 | 1014.0 |
| 20260901203818 | 63 | 204 | 3.0 | 14.0 | 0.00 | 0.00 | 0.00 | 59 | 1014.0 |
| 20260901203003 | 63 | 198 | 5.0 | 19.0 | 0.00 | 0.00 | 0.00 | 61 | 1013.9 |
| 20260901202403 | 62 | 198 | 3.0 | 10.0 | 0.00 | 0.00 | 0.00 | 61 | 1013.9 |
| 20260901201803 | 62 | 184 | 3.0 | 13.0 | 0.00 | 0.00 | 0.00 | 62 | 1013.8 |
| 20260901201203 | 62 | 187 | 4.0 | 14.0 | 0.00 | 0.00 | 0.00 | 63 | 1013.9 |
| 20260901200603 | 61 | 208 | 6.0 | 14.0 | 0.00 | 0.00 | 0.00 | 64 | 1014.1 |
| 20260901200003 | 61 | 232 | 4.0 | 14.0 | 0.00 | 0.00 | 0.00 | 65 | 1014.0 |
| 20260901195403 | 61 | 204 | 5.0 | 14.0 | 0.00 | 0.00 | 0.00 | 64 | 1014.0 |
| 20260901195016 | 61 | 175 | 5.0 | 14.0 | 0.00 | 0.00 | 0.00 | 63 | 1014.0 |
| 20260901194418 | 62 | 183 | 6.0 | 15.0 | 0.00 | 0.00 | 0.00 | 63 | 1014.1 |
| 20260901193603 | 62 | 195 | 8.0 | 19.0 | 0.00 | 0.00 | 0.00 | 63 | 1014.1 |
| 20260901193003 | 61 | 189 | 4.0 | 14.0 | 0.00 | 0.00 | 0.00 | 65 | 1014.0 |
| 20260901192403 | 62 | 200 | 3.0 | 10.0 | 0.00 | 0.00 | 0.00 | 64 | 1014.1 |
| 20260901191803 | 61 | 197 | 4.0 | 12.0 | 0.00 | 0.00 | 0.00 | 66 | 1014.2 |
| 20260901191203 | 61 | 191 | 4.0 | 12.0 | 0.00 | 0.00 | 0.00 | 65 | 1014.1 |
| 20260901190817 | 61 | 200 | 5.0 | 16.0 | 0.00 | 0.00 | 0.00 | 65 | 1014.2 |
| 20260901190003 | 60 | 193 | 5.0 | 14.0 | 0.00 | 0.00 | 0.00 | 66 | 1014.2 |
| 20260901185403 | 60 | 211 | 5.0 | 19.0 | 0.00 | 0.00 | 0.00 | 67 | 1014.3 |
| 20260901185018 | 60 | 210 | 8.0 | 20.0 | 0.00 | 0.00 | 0.00 | 66 | 1014.3 |
| 20260901184418 | 60 | 217 | 8.0 | 20.0 | 0.00 | 0.00 | 0.00 | 67 | 1014.3 |
| 20260901183817 | 60 | 221 | 6.0 | 13.0 | 0.00 | 0.00 | 0.00 | 69 | 1014.2 |
| 20260901183003 | 59 | 188 | 5.0 | 16.0 | 0.00 | 0.00 | 0.00 | 70 | 1014.1 |
| 20260901182403 | 58 | 177 | 5.0 | 17.0 | 0.00 | 0.00 | 0.00 | 72 | 1014.1 |
| 20260901181803 | 58 | 168 | 6.0 | 17.0 | 0.00 | 0.00 | 0.00 | 71 | 1014.1 |
| 20260901181203 | 58 | 161 | 6.0 | 15.0 | 0.00 | 0.00 | 0.00 | 72 | 1014.2 |
| 20260901180603 | 58 | 153 | 5.0 | 15.0 | 0.00 | 0.00 | 0.00 | 72 | 1014.1 |
| 20260901180217 | 57 | 164 | 4.0 | 13.0 | 0.00 | 0.00 | 0.00 | 74 | 1014.3 |
| 20260901175403 | 56 | 202 | 5.0 | 13.0 | 0.00 | 0.00 | 0.00 | 77 | 1014.4 |
| 20260901174803 | 56 | 198 | 4.0 | 10.0 | 0.00 | 0.00 | 0.00 | 78 | 1014.5 |
| 20260901174203 | 56 | 193 | 4.0 | 14.0 | 0.00 | 0.00 | 0.00 | 78 | 1014.4 |
| 20260901173603 | 55 | 161 | 5.0 | 14.0 | 0.00 | 0.00 | 0.00 | 78 | 1014.6 |
| 20260901173004 | 55 | 122 | 4.0 | 12.0 | 0.00 | 0.00 | 0.00 | 79 | 1014.6 |
| 20260901172618 | 54 | 139 | 3.0 | 12.0 | 0.00 | 0.00 | 0.00 | 80 | 1014.5 |
| 20260901171803 | 53 | 152 | 6.0 | 12.0 | 0.00 | 0.00 | 0.00 | 82 | 1014.7 |
| 20260901171203 | 53 | 153 | 7.0 | 16.0 | 0.00 | 0.00 | 0.00 | 82 | 1014.7 |
| 20260901170603 | 53 | 160 | 6.0 | 16.0 | 0.00 | 0.00 | 0.00 | 83 | 1014.6 |
| 20260901170003 | 52 | 169 | 5.0 | 14.0 | 0.00 | 0.00 | 0.00 | 84 | 1014.4 |
| 20260901165403 | 52 | 180 | 5.0 | 14.0 | 0.00 | 0.00 | 0.00 | 85 | 1014.4 |
| 20260901164803 | 52 | 186 | 5.0 | 14.0 | 0.00 | 0.00 | 0.00 | 86 | 1014.3 |
| 20260901164203 | 52 | 178 | 4.0 | 12.0 | 0.00 | 0.00 | 0.00 | 87 | 1014.3 |
| 20260901163604 | 52 | 169 | 3.0 | 9.0 | 0.00 | 0.00 | 0.00 | 88 | 1014.1 |
| 20260901163003 | 51 | 182 | 4.0 | 13.0 | 0.00 | 0.00 | 0.00 | 88 | 1014.2 |
| 20260901162618 | 51 | 176 | 5.0 | 13.0 | 0.00 | 0.00 | 0.00 | 88 | 1014.2 |
| 20260901161804 | 51 | 167 | 4.0 | 12.0 | 0.00 | 0.00 | 0.00 | 88 | 1014.0 |
| 20260901161417 | 51 | 157 | 4.0 | 12.0 | 0.00 | 0.00 | 0.00 | 88 | 1014.1 |
| 20260901160819 | 51 | 149 | 5.0 | 13.0 | 0.00 | 0.00 | 0.00 | 88 | 1014.0 |
| 20260901160004 | 51 | 161 | 5.0 | 10.0 | 0.00 | 0.00 | 0.00 | 89 | 1013.5 |
| 20260901155403 | 51 | 165 | 5.0 | 10.0 | 0.00 | 0.00 | 0.00 | 89 | 1013.4 |
| 20260901154803 | 50 | 161 | 6.0 | 13.0 | 0.00 | 0.00 | 0.00 | 89 | 1013.3 |
| 20260901154203 | 50 | 166 | 5.0 | 13.0 | 0.00 | 0.00 | 0.00 | 89 | 1013.3 |
| 20260901153603 | 50 | 171 | 5.0 | 12.0 | 0.00 | 0.00 | 0.00 | 89 | 1013.5 |
| 20260901153003 | 50 | 172 | 6.0 | 12.0 | 0.00 | 0.00 | 0.00 | 89 | 1013.4 |
| 20260901152403 | 50 | 166 | 7.0 | 14.0 | 0.00 | 0.00 | 0.00 | 89 | 1013.3 |
| 20260901152017 | 50 | 160 | 6.0 | 14.0 | 0.00 | 0.00 | 0.00 | 89 | 1013.3 |
| 20260901151203 | 50 | 165 | 5.0 | 13.0 | 0.00 | 0.00 | 0.00 | 89 | 1013.1 |
| 20260901150603 | 50 | 161 | 5.0 | 13.0 | 0.00 | 0.00 | 0.00 | 89 | 1013.0 |
| 20260901150003 | 50 | 158 | 5.0 | 12.0 | 0.00 | 0.00 | 0.00 | 90 | 1012.5 |
| 20260901145403 | 50 | 160 | 5.0 | 10.0 | 0.00 | 0.00 | 0.00 | 90 | 1012.5 |
| 20260901144803 | 50 | 155 | 5.0 | 12.0 | 0.00 | 0.00 | 0.00 | 90 | 1012.2 |
| 20260901144203 | 50 | 154 | 5.0 | 12.0 | 0.00 | 0.00 | 0.00 | 90 | 1012.2 |
| 20260901143818 | 50 | 153 | 5.0 | 12.0 | 0.00 | 0.00 | 0.00 | 90 | 1012.2 |
| 20260901143003 | 49 | 154 | 5.0 | 13.0 | 0.00 | 0.00 | 0.00 | 90 | 1012.0 |
| 20260901142617 | 49 | 160 | 6.0 | 13.0 | 0.00 | 0.00 | 0.00 | 90 | 1012.0 |
| 20260901141803 | 49 | 159 | 6.0 | 14.0 | 0.00 | 0.00 | 0.00 | 91 | 1011.9 |
| 20260901141203 | 49 | 153 | 5.0 | 12.0 | 0.00 | 0.00 | 0.00 | 91 | 1011.8 |
| 20260901140603 | 49 | 149 | 5.0 | 13.0 | 0.00 | 0.00 | 0.00 | 91 | 1011.7 |
| 20260901140003 | 49 | 147 | 6.0 | 16.0 | 0.00 | 0.00 | 0.00 | 91 | 1011.2 |
| 20260901135403 | 49 | 143 | 7.0 | 18.0 | 0.00 | 0.00 | 0.00 | 91 | 1011.2 |
| 20260901135018 | 49 | 144 | 8.0 | 18.0 | 0.00 | 0.00 | 0.00 | 91 | 1011.1 |
| 20260901134203 | 49 | 143 | 7.0 | 15.0 | 0.00 | 0.00 | 0.00 | 91 | 1010.9 |
| 20260901133603 | 49 | 140 | 8.0 | 17.0 | 0.00 | 0.00 | 0.00 | 91 | 1011.0 |
| 20260901133003 | 49 | 139 | 9.0 | 16.0 | 0.00 | 0.00 | 0.00 | 91 | 1011.1 |
| 20260901132403 | 49 | 137 | 8.0 | 16.0 | 0.00 | 0.00 | 0.00 | 91 | 1011.1 |
| 20260901131803 | 49 | 141 | 7.0 | 15.0 | 0.00 | 0.00 | 0.00 | 91 | 1011.2 |
| 20260901131203 | 49 | 142 | 5.0 | 13.0 | 0.00 | 0.00 | 0.00 | 91 | 1011.3 |
| 20260901130603 | 49 | 146 | 5.0 | 14.0 | 0.00 | 0.00 | 0.00 | 91 | 1011.5 |
| 20260901130003 | 50 | 160 | 4.0 | 14.0 | 0.00 | 0.00 | 0.00 | 92 | 1011.3 |
| 20260901125403 | 49 | 165 | 5.0 | 13.0 | 0.00 | 0.00 | 0.00 | 91 | 1011.3 |
| 20260901124803 | 49 | 170 | 6.0 | 14.0 | 0.00 | 0.00 | 0.00 | 91 | 1011.1 |
| 20260901124203 | 50 | 172 | 6.0 | 14.0 | 0.00 | 0.00 | 0.00 | 91 | 1011.2 |
| 20260901123603 | 50 | 174 | 8.0 | 15.0 | 0.00 | 0.00 | 0.00 | 90 | 1011.1 |
| 20260901123003 | 50 | 176 | 6.0 | 15.0 | 0.00 | 0.00 | 0.00 | 90 | 1010.9 |
| 20260901122403 | 50 | 180 | 4.0 | 13.0 | 0.00 | 0.00 | 0.00 | 90 | 1010.7 |
| 20260901121803 | 50 | 177 | 5.0 | 13.0 | 0.00 | 0.00 | 0.00 | 89 | 1010.6 |
| 20260901121203 | 50 | 178 | 5.0 | 14.0 | 0.00 | 0.00 | 0.00 | 88 | 1010.6 |
| 20260901120604 | 50 | 181 | 4.0 | 14.0 | 0.00 | 0.00 | 0.00 | 87 | 1010.4 |
| 20260901120003 | 51 | 183 | 5.0 | 14.0 | 0.00 | 0.00 | 0.00 | 86 | 1010.1 |
| 20260901115403 | 52 | 186 | 4.0 | 10.0 | 0.00 | 0.00 | 0.00 | 84 | 1010.0 |
| 20260901114803 | 52 | 191 | 5.0 | 13.0 | 0.00 | 0.00 | 0.00 | 82 | 1010.0 |
| 20260901114203 | 53 | 181 | 5.0 | 13.0 | 0.00 | 0.00 | 0.00 | 80 | 1009.7 |
| 20260901113603 | 54 | 177 | 4.0 | 12.0 | 0.00 | 0.00 | 0.00 | 79 | 1009.3 |
| 20260901113003 | 55 | 165 | 4.0 | 6.0 | 0.00 | 0.00 | 0.00 | 77 | 1009.2 |
| 20260901112618 | 56 | 154 | 4.0 | 7.0 | 0.00 | 0.00 | 0.00 | 76 | 1009.1 |
| 20260901111803 | 56 | 127 | 2.0 | 6.0 | 0.00 | 0.00 | 0.00 | 75 | 1009.1 |
| 20260901111204 | 56 | 105 | 2.0 | 9.0 | 0.00 | 0.00 | 0.00 | 75 | 1009.0 |
| 20260901110603 | 55 | 107 | 4.0 | 9.0 | 0.00 | 0.00 | 0.00 | 75 | 1009.1 |
| 20260901110003 | 55 | 104 | 4.0 | 9.0 | 0.00 | 0.00 | 0.00 | 76 | 1009.0 |
| 20260901105403 | 55 | 100 | 3.0 | 10.0 | 0.00 | 0.00 | 0.00 | 77 | 1009.1 |
| 20260901104803 | 55 | 104 | 3.0 | 12.0 | 0.00 | 0.00 | 0.00 | 78 | 1009.1 |
| 20260901104203 | 54 | 104 | 5.0 | 12.0 | 0.00 | 0.00 | 0.00 | 80 | 1009.1 |
| 20260901103603 | 54 | 103 | 6.0 | 13.0 | 0.00 | 0.00 | 0.00 | 81 | 1008.9 |
| 20260901103004 | 54 | 106 | 5.0 | 13.0 | 0.00 | 0.00 | 0.00 | 81 | 1008.9 |
| 20260901102403 | 54 | 113 | 4.0 | 10.0 | 0.00 | 0.00 | 0.00 | 82 | 1009.0 |
| 20260901101804 | 54 | 136 | 2.0 | 7.0 | 0.00 | 0.00 | 0.00 | 82 | 1009.1 |
| 20260901101203 | 54 | 143 | 3.0 | 6.0 | 0.00 | 0.00 | 0.00 | 82 | 1009.2 |
| 20260901100818 | 54 | 146 | 3.0 | 6.0 | 0.00 | 0.00 | 0.00 | 82 | 1009.3 |
| 20260901100003 | 54 | 151 | 3.0 | 6.0 | 0.00 | 0.00 | 0.00 | 82 | 1009.4 |
| 20260901095403 | 54 | 153 | 3.0 | 6.0 | 0.00 | 0.00 | 0.00 | 82 | 1009.5 |
| 20260901095017 | 54 | 154 | 2.0 | 6.0 | 0.00 | 0.00 | 0.00 | 82 | 1009.6 |
| 20260901094203 | 54 | 154 | 3.0 | 6.0 | 0.00 | 0.00 | 0.00 | 82 | 1009.4 |
| 20260901093603 | 54 | 156 | 3.0 | 6.0 | 0.00 | 0.00 | 0.00 | 82 | 1009.4 |
| 20260901093003 | 54 | 157 | 3.0 | 6.0 | 0.00 | 0.00 | 0.00 | 82 | 1009.4 |
| 20260901092403 | 54 | 161 | 3.0 | 6.0 | 0.00 | 0.00 | 0.00 | 83 | 1009.4 |
| 20260901091803 | 54 | 162 | 3.0 | 6.0 | 0.00 | 0.00 | 0.00 | 83 | 1009.5 |
| 20260901091203 | 54 | 158 | 3.0 | 6.0 | 0.00 | 0.00 | 0.00 | 82 | 1009.6 |
| 20260901090603 | 54 | 151 | 3.0 | 6.0 | 0.00 | 0.00 | 0.00 | 83 | 1009.5 |
| 20260901090003 | 54 | 144 | 2.0 | 5.0 | 0.00 | 0.00 | 0.00 | 83 | 1009.5 |
| 20260901085617 | 54 | 144 | 1.0 | 5.0 | 0.00 | 0.00 | 0.00 | 83 | 1009.5 |
| 20260901084803 | 54 | 144 | 1.0 | 5.0 | 0.00 | 0.00 | 0.00 | 83 | 1009.6 |
| 20260901084203 | 54 | 141 | 3.0 | 7.0 | 0.00 | 0.00 | 0.00 | 83 | 1009.6 |
| 20260901083603 | 54 | 139 | 4.0 | 9.0 | 0.00 | 0.00 | 0.00 | 83 | 1009.6 |
| 20260901083003 | 54 | 134 | 5.0 | 10.0 | 0.00 | 0.00 | 0.00 | 82 | 1009.6 |
| 20260901082403 | 54 | 138 | 4.0 | 10.0 | 0.00 | 0.00 | 0.00 | 82 | 1009.6 |
| 20260901082018 | 54 | 142 | 3.0 | 7.0 | 0.00 | 0.00 | 0.00 | 82 | 1009.7 |
| 20260901081203 | 54 | 145 | 3.0 | 6.0 | 0.00 | 0.00 | 0.00 | 82 | 1009.7 |
| 20260901080817 | 55 | 146 | 3.0 | 6.0 | 0.00 | 0.00 | 0.00 | 82 | 1009.8 |
| 20260901080003 | 55 | 154 | 4.0 | 10.0 | 0.00 | 0.00 | 0.00 | 81 | 1009.7 |
| 20260901075403 | 55 | 162 | 5.0 | 10.0 | 0.00 | 0.00 | 0.00 | 81 | 1009.7 |
| 20260901074803 | 55 | 162 | 5.0 | 10.0 | 0.00 | 0.00 | 0.00 | 81 | 1009.8 |
| 20260901074203 | 55 | 165 | 6.0 | 12.0 | 0.00 | 0.00 | 0.00 | 81 | 1009.8 |
| 20260901073603 | 55 | 171 | 5.0 | 10.0 | 0.00 | 0.00 | 0.00 | 81 | 1009.7 |
| 20260901073003 | 55 | 174 | 5.0 | 13.0 | 0.00 | 0.00 | 0.00 | 81 | 1009.6 |
| 20260901072403 | 55 | 172 | 5.0 | 13.0 | 0.00 | 0.00 | 0.00 | 81 | 1009.6 |
| 20260901071803 | 55 | 169 | 4.0 | 12.0 | 0.00 | 0.00 | 0.00 | 80 | 1009.4 |
| 20260901071203 | 56 | 169 | 4.0 | 10.0 | 0.00 | 0.00 | 0.00 | 80 | 1009.4 |
| 20260901070817 | 56 | 169 | 3.0 | 10.0 | 0.00 | 0.00 | 0.00 | 79 | 1009.3 |
| 20260901070004 | 56 | 169 | 3.0 | 7.0 | 0.00 | 0.00 | 0.00 | 78 | 1008.8 |
| 20260901065403 | 56 | 169 | 2.0 | 7.0 | 0.00 | 0.00 | 0.00 | 78 | 1008.8 |
| 20260901064803 | 56 | 169 | 2.0 | 5.0 | 0.00 | 0.00 | 0.00 | 77 | 1008.8 |
| 20260901064203 | 57 | 170 | 2.0 | 5.0 | 0.00 | 0.00 | 0.00 | 77 | 1008.8 |
| 20260901063817 | 57 | 173 | 2.0 | 5.0 | 0.00 | 0.00 | 0.00 | 76 | 1008.8 |
| 20260901063003 | 57 | 176 | 2.0 | 5.0 | 0.00 | 0.00 | 0.00 | 76 | 1008.8 |
| 20260901062403 | 57 | 177 | 2.0 | 6.0 | 0.00 | 0.00 | 0.00 | 76 | 1008.8 |
| 20260901061803 | 57 | 182 | 2.0 | 6.0 | 0.00 | 0.00 | 0.00 | 75 | 1008.8 |
| 20260901061203 | 58 | 186 | 1.0 | 5.0 | 0.00 | 0.00 | 0.00 | 75 | 1008.7 |
| 20260901060817 | 58 | 186 | 1.0 | 5.0 | 0.00 | 0.00 | 0.00 | 74 | 1008.7 |
| 20260901060003 | 58 | 186 | 1.0 | 4.0 | 0.00 | 0.00 | 0.00 | 74 | 1008.8 |
| 20260901055403 | 58 | 186 | 2.0 | 4.0 | 0.00 | 0.00 | 0.00 | 73 | 1008.8 |
| 20260901054803 | 59 | 186 | 1.0 | 4.0 | 0.00 | 0.00 | 0.00 | 73 | 1008.9 |
| 20260901054203 | 59 | 186 | 0.0 | 2.0 | 0.00 | 0.00 | 0.00 | 72 | 1008.9 |
| 20260901053603 | 59 | 186 | 0.0 | 3.0 | 0.00 | 0.00 | 0.00 | 72 | 1008.9 |
| 20260901053003 | 59 | 186 | 1.0 | 3.0 | 0.00 | 0.00 | 0.00 | 72 | 1008.9 |
| 20260901052403 | 59 | 186 | 0.0 | 2.0 | 0.00 | 0.00 | 0.00 | 72 | 1008.9 |
| 20260901051803 | 59 | 186 | 1.0 | 4.0 | 0.00 | 0.00 | 0.00 | 71 | 1008.9 |
| 20260901051203 | 59 | 188 | 1.0 | 5.0 | 0.00 | 0.00 | 0.00 | 71 | 1009.0 |
| 20260901050603 | 59 | 193 | 2.0 | 5.0 | 0.00 | 0.00 | 0.00 | 71 | 1009.0 |
| 20260901050003 | 60 | 199 | 1.0 | 4.0 | 0.00 | 0.00 | 0.00 | 70 | 1009.2 |
| 20260901045403 | 60 | 201 | 0.0 | 2.0 | 0.00 | 0.00 | 0.00 | 70 | 1009.1 |
| 20260901044803 | 60 | 201 | 0.0 | 3.0 | 0.00 | 0.00 | 0.00 | 70 | 1009.2 |
| 20260901044203 | 60 | 201 | 1.0 | 4.0 | 0.00 | 0.00 | 0.00 | 69 | 1009.2 |
| 20260901043603 | 60 | 202 | 1.0 | 5.0 | 0.00 | 0.00 | 0.00 | 68 | 1009.0 |
| 20260901043003 | 61 | 202 | 1.0 | 5.0 | 0.00 | 0.00 | 0.00 | 68 | 1009.0 |
| 20260901042403 | 61 | 202 | 1.0 | 5.0 | 0.00 | 0.00 | 0.00 | 67 | 1009.0 |
| 20260901041803 | 62 | 202 | 1.0 | 5.0 | 0.00 | 0.00 | 0.00 | 66 | 1008.9 |
| 20260901041418 | 62 | 202 | 0.0 | 3.0 | 0.00 | 0.00 | 0.00 | 66 | 1008.9 |
| 20260901040603 | 62 | 202 | 0.0 | 3.0 | 0.00 | 0.00 | 0.00 | 65 | 1008.8 |
| 20260901040217 | 62 | 202 | 0.0 | 3.0 | 0.00 | 0.00 | 0.00 | 65 | 1008.8 |
| 20260901035404 | 63 | 202 | 1.0 | 4.0 | 0.00 | 0.00 | 0.00 | 64 | 1009.3 |
| 20260901034803 | 63 | 202 | 0.0 | 3.0 | 0.00 | 0.00 | 0.00 | 63 | 1009.2 |
| 20260901034203 | 64 | 202 | 0.0 | 3.0 | 0.00 | 0.00 | 0.00 | 62 | 1008.9 |
| 20260901033603 | 64 | 202 | 1.0 | 4.0 | 0.00 | 0.00 | 0.00 | 61 | 1008.9 |
| 20260901033003 | 65 | 202 | 2.0 | 8.0 | 0.00 | 0.00 | 0.00 | 61 | 1008.9 |
| 20260901032403 | 65 | 202 | 1.0 | 5.0 | 0.00 | 0.00 | 0.00 | 59 | 1008.9 |
| 20260901031803 | 65 | 203 | 1.0 | 5.0 | 0.00 | 0.00 | 0.00 | 57 | 1008.8 |
| 20260901031203 | 66 | 202 | 1.0 | 5.0 | 0.00 | 0.00 | 0.00 | 56 | 1008.5 |
| 20260901030603 | 66 | 202 | 1.0 | 3.0 | 0.00 | 0.00 | 0.00 | 54 | 1008.4 |
| 20260901030003 | 66 | 202 | 0.0 | 2.0 | 0.00 | 0.00 | 0.00 | 53 | 1008.6 |
| 20260901025403 | 67 | 202 | 0.0 | 2.0 | 0.00 | 0.00 | 0.00 | 52 | 1008.6 |
| 20260901024803 | 67 | 202 | 0.0 | 2.0 | 0.00 | 0.00 | 0.00 | 51 | 1008.6 |
| 20260901024203 | 68 | 202 | 0.0 | 2.0 | 0.00 | 0.00 | 0.00 | 50 | 1008.6 |
| 20260901023603 | 68 | 202 | 0.0 | 2.0 | 0.00 | 0.00 | 0.00 | 49 | 1008.6 |
| 20260901023003 | 68 | 202 | 0.0 | 2.0 | 0.00 | 0.00 | 0.00 | 48 | 1008.4 |
| 20260901022404 | 69 | 202 | 0.0 | 3.0 | 0.00 | 0.00 | 0.00 | 47 | 1008.5 |
| 20260901021803 | 70 | 202 | 0.0 | 3.0 | 0.00 | 0.00 | 0.00 | 45 | 1008.5 |
| 20260901021203 | 71 | 202 | 0.0 | 3.0 | 0.00 | 0.00 | 0.00 | 43 | 1008.3 |
| 20260901020603 | 71 | 202 | 0.0 | 3.0 | 0.00 | 0.00 | 0.00 | 43 | 1008.4 |
| 20260901020003 | 71 | 189 | 1.0 | 5.0 | 0.00 | 0.00 | 0.00 | 42 | 1008.5 |
| 20260901015403 | 72 | 170 | 2.0 | 5.0 | 0.00 | 0.00 | 0.00 | 40 | 1008.3 |
| 20260901014803 | 72 | 174 | 2.0 | 10.0 | 0.00 | 0.00 | 0.00 | 40 | 1008.3 |
| 20260901014203 | 72 | 180 | 3.0 | 10.0 | 0.00 | 0.00 | 0.00 | 39 | 1008.3 |
| 20260901013603 | 72 | 187 | 3.0 | 7.0 | 0.00 | 0.00 | 0.00 | 39 | 1008.3 |
| 20260901013003 | 72 | 196 | 2.0 | 7.0 | 0.00 | 0.00 | 0.00 | 40 | 1008.4 |
| 20260901012403 | 73 | 202 | 3.0 | 8.0 | 0.00 | 0.00 | 0.00 | 39 | 1008.3 |
| 20260901012018 | 73 | 200 | 3.0 | 9.0 | 0.00 | 0.00 | 0.00 | 39 | 1008.4 |
| 20260901011203 | 73 | 198 | 3.0 | 13.0 | 0.00 | 0.00 | 0.00 | 39 | 1008.5 |
| 20260901010603 | 74 | 202 | 4.0 | 13.0 | 0.00 | 0.00 | 0.00 | 38 | 1008.4 |
| 20260901010003 | 74 | 215 | 2.0 | 10.0 | 0.00 | 0.00 | 0.00 | 39 | 1008.4 |
| 20260901005618 | 74 | 202 | 1.0 | 5.0 | 0.00 | 0.00 | 0.00 | 40 | 1008.3 |
| 20260901004803 | 74 | 188 | 1.0 | 7.0 | 0.00 | 0.00 | 0.00 | 41 | 1008.2 |
| 20260901004203 | 74 | 175 | 2.0 | 9.0 | 0.00 | 0.00 | 0.00 | 40 | 1008.3 |
| 20260901003603 | 74 | 193 | 4.0 | 9.0 | 0.00 | 0.00 | 0.00 | 38 | 1008.4 |
| 20260901003218 | 74 | 201 | 3.0 | 9.0 | 0.00 | 0.00 | 0.00 | 38 | 1008.5 |
| 20260901002403 | 75 | 195 | 3.0 | 10.0 | 0.00 | 0.00 | 0.00 | 39 | 1008.2 |
| 20260901001803 | 75 | 199 | 2.0 | 10.0 | 0.00 | 0.00 | 0.00 | 39 | 1008.2 |
| 20260901001203 | 75 | 191 | 5.0 | 13.0 | 0.00 | 0.00 | 0.00 | 37 | 1008.2 |
| 20260901000603 | 75 | 202 | 5.0 | 13.0 | 0.00 | 0.00 | 0.00 | 37 | 1008.2 |
| 20260901000003 | 75 | 227 | 2.0 | 13.0 | 0.00 | 0.00 | 0.00 | 39 | 1008.2 |
| 20260831235403 | 75 | 221 | 2.0 | 7.0 | 0.00 | 0.00 | 0.00 | 38 | 1008.2 |
| 20260831234803 | 75 | 209 | 4.0 | 10.0 | 0.00 | 0.00 | 0.00 | 38 | 1008.2 |
| 20260831234203 | 75 | 201 | 3.0 | 10.0 | 0.00 | 0.00 | 0.00 | 37 | 1008.3 |
| 20260831233603 | 75 | 215 | 2.0 | 7.0 | 0.00 | 0.00 | 0.00 | 37 | 1008.4 |
| 20260831233218 | 75 | 203 | 3.0 | 10.0 | 0.00 | 0.00 | 0.00 | 37 | 1008.4 |
| 20260831232403 | 76 | 190 | 4.0 | 10.0 | 0.00 | 0.00 | 0.00 | 36 | 1008.6 |
| 20260831231804 | 76 | 175 | 3.0 | 12.0 | 0.00 | 0.00 | 0.00 | 36 | 1008.5 |
| 20260831231203 | 76 | 188 | 2.0 | 10.0 | 0.00 | 0.00 | 0.00 | 36 | 1008.5 |
| 20260831230603 | 76 | 240 | 4.0 | 10.0 | 0.00 | 0.00 | 0.00 | 36 | 1008.6 |
| 20260831230003 | 76 | 243 | 5.0 | 13.0 | 0.00 | 0.00 | 0.00 | 35 | 1008.5 |
| 20260831225617 | 76 | 237 | 4.0 | 13.0 | 0.00 | 0.00 | 0.00 | 36 | 1008.5 |
| 20260831224803 | 76 | 211 | 2.0 | 10.0 | 0.00 | 0.00 | 0.00 | 35 | 1008.4 |
| 20260831224203 | 76 | 214 | 3.0 | 15.0 | 0.00 | 0.00 | 0.00 | 34 | 1008.5 |
| 20260831223604 | 76 | 195 | 5.0 | 15.0 | 0.00 | 0.00 | 0.00 | 34 | 1008.4 |
| 20260831223004 | 76 | 183 | 4.0 | 14.0 | 0.00 | 0.00 | 0.00 | 33 | 1008.5 |